PWSweather.com
Personal Weather Stations
Station Observations
J24K28P63
Vysocina, PocatkyCZ 39464

VysocinaPocatkyCZ 39464

Lat: 49.2594238, Lon: 15.2331769

Elevation: 2011

Station Type: Vantage Pro2+

http://meteo-jirkalina.com

High Low Average
Temperature 77.3°F25.2°C 51.0°F10.6°C 66.6°F19.2°C
Dew Point 53.6°F12.0°C 34.4°F1.3°C 45.8°F7.7°C
Winds 15.0 mph 24.1 kmh Calm Calm 7.0 mph E11.3 kmh E
Wind Gusts 20.0 mph32.2 kmh -- 10.0 mph16.1 kmh
Humidity 85% 28% 49%
Pressure 29.89 in1012.2 mb 29.72 in1006.4 mb -
Precipitation 0.00 in0.0 mm - -
Hour Temp Dew Point Humidity Winds Wind Gusts Pressure Precip Precip Rate Daily Precip Total
12:00 AM 57.2°F14.0°C 40.2°F4.6°C 53% 3.1 mph E5.0 kmh E 4.0 mph6.4 kmh 29.74 in1007.1 mb - 0.00 in0.0 mm 0.00 in0.0 mm
12:30 AM 56.6°F13.7°C 39.7°F4.3°C 53% 2.6 mph ENE4.2 kmh ENE 4.0 mph6.4 kmh 29.73 in1006.8 mb - 0.00 in0.0 mm 0.00 in0.0 mm
01:00 AM 56.5°F13.6°C 39.6°F4.2°C 53% 4.0 mph ENE6.4 kmh ENE 5.0 mph8.0 kmh 29.73 in1006.8 mb - 0.00 in0.0 mm 0.00 in0.0 mm
01:30 AM 56.0°F13.3°C 39.1°F3.9°C 53% 4.3 mph ENE6.9 kmh ENE 7.0 mph11.3 kmh 29.73 in1006.8 mb - 0.00 in0.0 mm 0.00 in0.0 mm
02:00 AM 55.3°F12.9°C 39.9°F4.4°C 56% 3.4 mph NE5.5 kmh NE 5.0 mph8.0 kmh 29.72 in1006.4 mb - 0.00 in0.0 mm 0.00 in0.0 mm
02:30 AM 54.1°F12.3°C 40.5°F4.7°C 60% 3.6 mph NE5.8 kmh NE 6.0 mph9.7 kmh 29.73 in1006.8 mb - 0.00 in0.0 mm 0.00 in0.0 mm
03:00 AM 55.0°F12.8°C 38.7°F3.7°C 54% 5.7 mph E9.2 kmh E 10.0 mph16.1 kmh 29.73 in1006.8 mb - 0.00 in0.0 mm 0.00 in0.0 mm
03:30 AM 55.6°F13.1°C 37.3°F2.9°C 50% 3.2 mph E5.1 kmh E 5.0 mph8.0 kmh 29.72 in1006.4 mb - 0.00 in0.0 mm 0.00 in0.0 mm
04:00 AM 54.7°F12.6°C 38.4°F3.6°C 54% 3.6 mph NE5.8 kmh NE 6.0 mph9.7 kmh 29.72 in1006.4 mb - 0.00 in0.0 mm 0.00 in0.0 mm
04:30 AM 52.9°F11.6°C 39.8°F4.3°C 61% 3.3 mph NE5.3 kmh NE 4.0 mph6.4 kmh 29.73 in1006.8 mb - 0.00 in0.0 mm 0.00 in0.0 mm
04:40 AM 51.0°F10.6°C 46.6°F8.1°C 85% 1.0 mph SE1.6 kmh SE 3.0 mph4.8 kmh 29.80 in1009.1 mb - 0.00 in0.0 mm 0.00 in0.0 mm
04:50 AM 51.7°F10.9°C 47.0°F8.3°C 84% 1.0 mph SE1.6 kmh SE 2.0 mph3.2 kmh 29.81 in1009.5 mb - 0.00 in0.0 mm 0.00 in0.0 mm
05:00 AM 52.1°F11.2°C 47.1°F8.4°C 83% 1.0 mph SE1.6 kmh SE 2.0 mph3.2 kmh 29.81 in1009.5 mb - 0.00 in0.0 mm 0.00 in0.0 mm
05:10 AM 52.5°F11.4°C 47.2°F8.4°C 82% 2.0 mph SE3.2 kmh SE 3.0 mph4.8 kmh 29.81 in1009.5 mb - 0.00 in0.0 mm 0.00 in0.0 mm
05:20 AM 53.1°F11.7°C 47.7°F8.7°C 82% 2.0 mph SE3.2 kmh SE 3.0 mph4.8 kmh 29.81 in1009.5 mb - 0.00 in0.0 mm 0.00 in0.0 mm
05:30 AM 54.0°F12.2°C 48.0°F8.9°C 80% 1.0 mph SE1.6 kmh SE 3.0 mph4.8 kmh 29.81 in1009.5 mb - 0.00 in0.0 mm 0.00 in0.0 mm
05:40 AM 55.0°F12.8°C 48.6°F9.2°C 79% 1.0 mph SE1.6 kmh SE 2.0 mph3.2 kmh 29.81 in1009.5 mb - 0.00 in0.0 mm 0.00 in0.0 mm
05:50 AM 56.0°F13.3°C 49.2°F9.6°C 78% 1.0 mph SE1.6 kmh SE 2.0 mph3.2 kmh 29.82 in1009.8 mb - 0.00 in0.0 mm 0.00 in0.0 mm
06:00 AM 58.6°F14.8°C 50.3°F10.2°C 74% 1.0 mph SE1.6 kmh SE 3.0 mph4.8 kmh 29.82 in1009.8 mb - 0.00 in0.0 mm 0.00 in0.0 mm
06:10 AM 60.2°F15.7°C 50.4°F10.2°C 70% 2.0 mph SE3.2 kmh SE 5.0 mph8.0 kmh 29.82 in1009.8 mb - 0.00 in0.0 mm 0.00 in0.0 mm
06:20 AM 61.3°F16.3°C 50.6°F10.3°C 68% 2.0 mph SE3.2 kmh SE 5.0 mph8.0 kmh 29.82 in1009.8 mb - 0.00 in0.0 mm 0.00 in0.0 mm
06:30 AM 62.6°F17.0°C 51.5°F10.8°C 67% 2.0 mph SE3.2 kmh SE 3.0 mph4.8 kmh 29.82 in1009.8 mb - 0.00 in0.0 mm 0.00 in0.0 mm
06:40 AM 63.4°F17.4°C 51.0°F10.6°C 64% 3.0 mph ESE4.8 kmh ESE 5.0 mph8.0 kmh 29.82 in1009.8 mb - 0.00 in0.0 mm 0.00 in0.0 mm
06:50 AM 64.1°F17.8°C 51.7°F10.9°C 64% 3.0 mph E4.8 kmh E 3.0 mph4.8 kmh 29.82 in1009.8 mb - 0.00 in0.0 mm 0.00 in0.0 mm
07:00 AM 64.9°F18.3°C 51.5°F10.8°C 62% 2.0 mph E3.2 kmh E 6.0 mph9.7 kmh 29.82 in1009.8 mb - 0.00 in0.0 mm 0.00 in0.0 mm
07:10 AM 66.9°F19.4°C 53.0°F11.7°C 61% 2.0 mph SE3.2 kmh SE 5.0 mph8.0 kmh 29.82 in1009.8 mb - 0.00 in0.0 mm 0.00 in0.0 mm
07:20 AM 67.6°F19.8°C 52.7°F11.5°C 59% 1.0 mph E1.6 kmh E 3.0 mph4.8 kmh 29.82 in1009.8 mb - 0.00 in0.0 mm 0.00 in0.0 mm
07:30 AM 68.0°F20.0°C 52.7°F11.5°C 58% 5.0 mph SE8.0 kmh SE 7.0 mph11.3 kmh 29.82 in1009.8 mb - 0.00 in0.0 mm 0.00 in0.0 mm
07:40 AM 67.4°F19.7°C 52.1°F11.2°C 58% 6.0 mph E9.7 kmh E 8.0 mph12.9 kmh 29.82 in1009.8 mb - 0.00 in0.0 mm 0.00 in0.0 mm
07:50 AM 67.2°F19.6°C 51.0°F10.6°C 56% 6.0 mph E9.7 kmh E 8.0 mph12.9 kmh 29.82 in1009.8 mb - 0.00 in0.0 mm 0.00 in0.0 mm
08:00 AM 68.2°F20.1°C 51.4°F10.8°C 55% 6.0 mph E9.7 kmh E 5.0 mph8.0 kmh 29.82 in1009.8 mb - 0.00 in0.0 mm 0.00 in0.0 mm
08:10 AM 68.3°F20.2°C 51.5°F10.8°C 55% 3.0 mph ENE4.8 kmh ENE 7.0 mph11.3 kmh 29.82 in1009.8 mb - 0.00 in0.0 mm 0.00 in0.0 mm
08:20 AM 68.8°F20.4°C 52.4°F11.3°C 56% 5.0 mph E8.0 kmh E 7.0 mph11.3 kmh 29.82 in1009.8 mb - 0.00 in0.0 mm 0.00 in0.0 mm
08:30 AM 69.8°F21.0°C 53.4°F11.9°C 56% 2.0 mph ESE3.2 kmh ESE 3.0 mph4.8 kmh 29.82 in1009.8 mb - 0.00 in0.0 mm 0.00 in0.0 mm
08:40 AM 72.2°F22.3°C 53.6°F12.0°C 52% 8.0 mph NE12.9 kmh NE 12.0 mph19.3 kmh 29.82 in1009.8 mb - 0.00 in0.0 mm 0.00 in0.0 mm
08:50 AM 72.3°F22.4°C 52.0°F11.1°C 49% 5.0 mph NE8.0 kmh NE 14.0 mph22.5 kmh 29.82 in1009.8 mb - 0.00 in0.0 mm 0.00 in0.0 mm
09:00 AM 71.5°F21.9°C 51.9°F11.1°C 50% 7.0 mph E11.3 kmh E 10.0 mph16.1 kmh 29.82 in1009.8 mb - 0.00 in0.0 mm 0.00 in0.0 mm
09:10 AM 71.7°F22.1°C 52.6°F11.4°C 51% 5.0 mph E8.0 kmh E 13.0 mph20.9 kmh 29.82 in1009.8 mb - 0.00 in0.0 mm 0.00 in0.0 mm
09:20 AM 72.1°F22.3°C 51.9°F11.1°C 49% 9.0 mph ENE14.5 kmh ENE 16.0 mph25.7 kmh 29.82 in1009.8 mb - 0.00 in0.0 mm 0.00 in0.0 mm
09:30 AM 72.1°F22.3°C 51.9°F11.1°C 49% 6.0 mph NE9.7 kmh NE 9.0 mph14.5 kmh 29.82 in1009.8 mb - 0.00 in0.0 mm 0.00 in0.0 mm
09:40 AM 72.8°F22.7°C 53.6°F12.0°C 51% 7.0 mph ENE11.3 kmh ENE 13.0 mph20.9 kmh 29.82 in1009.8 mb - 0.00 in0.0 mm 0.00 in0.0 mm
09:50 AM 72.4°F22.4°C 51.6°F10.9°C 48% 6.0 mph E9.7 kmh E 8.0 mph12.9 kmh 29.82 in1009.8 mb - 0.00 in0.0 mm 0.00 in0.0 mm
10:00 AM 72.7°F22.6°C 51.3°F10.7°C 47% 5.0 mph E8.0 kmh E 5.0 mph8.0 kmh 29.82 in1009.8 mb - 0.00 in0.0 mm 0.00 in0.0 mm
10:10 AM 73.0°F22.8°C 51.6°F10.9°C 47% 8.0 mph E12.9 kmh E 9.0 mph14.5 kmh 29.82 in1009.8 mb - 0.00 in0.0 mm 0.00 in0.0 mm
10:20 AM 74.0°F23.3°C 52.5°F11.4°C 47% 7.0 mph NE11.3 kmh NE 9.0 mph14.5 kmh 29.82 in1009.8 mb - 0.00 in0.0 mm 0.00 in0.0 mm
10:30 AM 74.0°F23.3°C 51.3°F10.7°C 45% 7.0 mph ENE11.3 kmh ENE 13.0 mph20.9 kmh 29.82 in1009.8 mb - 0.00 in0.0 mm 0.00 in0.0 mm
10:40 AM 74.1°F23.4°C 51.4°F10.8°C 45% 7.0 mph E11.3 kmh E 12.0 mph19.3 kmh 29.82 in1009.8 mb - 0.00 in0.0 mm 0.00 in0.0 mm
11:00 AM 67.8°F19.9°C 40.6°F4.8°C 37% 4.0 mph E6.4 kmh E 8.0 mph12.9 kmh 29.76 in1007.8 mb - 0.00 in0.0 mm 0.00 in0.0 mm
11:10 AM 75.5°F24.2°C 52.1°F11.2°C 44% 13.0 mph E20.9 kmh E 15.0 mph24.1 kmh 29.82 in1009.8 mb - 0.00 in0.0 mm 0.00 in0.0 mm
11:20 AM 75.1°F23.9°C 51.7°F10.9°C 44% 6.0 mph ENE9.7 kmh ENE 12.0 mph19.3 kmh 29.82 in1009.8 mb - 0.00 in0.0 mm 0.00 in0.0 mm
11:30 AM 69.4°F20.8°C 38.2°F3.4°C 32% 5.4 mph E8.7 kmh E 7.0 mph11.3 kmh 29.76 in1007.8 mb - 0.00 in0.0 mm 0.00 in0.0 mm
11:40 AM 75.5°F24.2°C 50.1°F10.1°C 41% 7.0 mph E11.3 kmh E 9.0 mph14.5 kmh 29.82 in1009.8 mb - 0.00 in0.0 mm 0.00 in0.0 mm
11:50 AM 75.9°F24.4°C 49.8°F9.9°C 40% 9.0 mph NE14.5 kmh NE 13.0 mph20.9 kmh 29.82 in1009.8 mb - 0.00 in0.0 mm 0.00 in0.0 mm
12:00 PM 75.6°F24.2°C 48.9°F9.4°C 39% 9.0 mph E14.5 kmh E 13.0 mph20.9 kmh 29.83 in1010.2 mb - 0.00 in0.0 mm 0.00 in0.0 mm
12:10 PM 76.1°F24.5°C 50.0°F10.0°C 40% 6.0 mph NE9.7 kmh NE 14.0 mph22.5 kmh 29.83 in1010.2 mb - 0.00 in0.0 mm 0.00 in0.0 mm
12:20 PM 76.2°F24.6°C 50.1°F10.1°C 40% 10.0 mph NE16.1 kmh NE 16.0 mph25.7 kmh 29.83 in1010.2 mb - 0.00 in0.0 mm 0.00 in0.0 mm
12:30 PM 75.7°F24.3°C 49.7°F9.8°C 40% 12.0 mph ENE19.3 kmh ENE 17.0 mph27.4 kmh 29.82 in1009.8 mb - 0.00 in0.0 mm 0.00 in0.0 mm
12:40 PM 75.7°F24.3°C 49.6°F9.8°C 40% 7.0 mph NE11.3 kmh NE 10.0 mph16.1 kmh 29.82 in1009.8 mb - 0.00 in0.0 mm 0.00 in0.0 mm
12:50 PM 75.5°F24.2°C 50.1°F10.1°C 41% 9.0 mph NE14.5 kmh NE 14.0 mph22.5 kmh 29.82 in1009.8 mb - 0.00 in0.0 mm 0.00 in0.0 mm
01:00 PM 76.7°F24.8°C 49.8°F9.9°C 39% 10.0 mph ENE16.1 kmh ENE 14.0 mph22.5 kmh 29.82 in1009.8 mb - 0.00 in0.0 mm 0.00 in0.0 mm
01:10 PM 76.6°F24.8°C 50.5°F10.3°C 40% 10.0 mph ENE16.1 kmh ENE 16.0 mph25.7 kmh 29.82 in1009.8 mb - 0.00 in0.0 mm 0.00 in0.0 mm
01:20 PM 76.2°F24.6°C 50.2°F10.1°C 40% 5.0 mph E8.0 kmh E 7.0 mph11.3 kmh 29.82 in1009.8 mb - 0.00 in0.0 mm 0.00 in0.0 mm
01:30 PM 76.7°F24.8°C 49.9°F9.9°C 39% 7.0 mph NE11.3 kmh NE 10.0 mph16.1 kmh 29.82 in1009.8 mb - 0.00 in0.0 mm 0.00 in0.0 mm
01:40 PM 76.5°F24.7°C 50.4°F10.2°C 40% 6.0 mph SE9.7 kmh SE 8.0 mph12.9 kmh 29.81 in1009.5 mb - 0.00 in0.0 mm 0.00 in0.0 mm
01:50 PM 77.3°F25.2°C 51.1°F10.6°C 40% 8.0 mph NE12.9 kmh NE 13.0 mph20.9 kmh 29.81 in1009.5 mb - 0.00 in0.0 mm 0.00 in0.0 mm
02:00 PM 77.0°F25.0°C 50.1°F10.1°C 39% 9.0 mph ENE14.5 kmh ENE 12.0 mph19.3 kmh 29.81 in1009.5 mb - 0.00 in0.0 mm 0.00 in0.0 mm
02:10 PM 77.2°F25.1°C 50.3°F10.2°C 39% 12.0 mph NE19.3 kmh NE 12.0 mph19.3 kmh 29.81 in1009.5 mb - 0.00 in0.0 mm 0.00 in0.0 mm
02:20 PM 76.9°F24.9°C 50.7°F10.4°C 40% 8.0 mph E12.9 kmh E 13.0 mph20.9 kmh 29.80 in1009.1 mb - 0.00 in0.0 mm 0.00 in0.0 mm
02:30 PM 76.7°F24.8°C 49.8°F9.9°C 39% 12.0 mph NE19.3 kmh NE 16.0 mph25.7 kmh 29.80 in1009.1 mb - 0.00 in0.0 mm 0.00 in0.0 mm
02:40 PM 76.9°F24.9°C 50.0°F10.0°C 39% 9.0 mph NE14.5 kmh NE 15.0 mph24.1 kmh 29.80 in1009.1 mb - 0.00 in0.0 mm 0.00 in0.0 mm
02:50 PM 75.6°F24.2°C 48.9°F9.4°C 39% 7.0 mph NE11.3 kmh NE 12.0 mph19.3 kmh 29.80 in1009.1 mb - 0.00 in0.0 mm 0.00 in0.0 mm
03:00 PM 75.6°F24.2°C 48.9°F9.4°C 39% 12.0 mph NE19.3 kmh NE 16.0 mph25.7 kmh 29.80 in1009.1 mb - 0.00 in0.0 mm 0.00 in0.0 mm
03:10 PM 76.4°F24.7°C 48.9°F9.4°C 38% 10.0 mph E16.1 kmh E 14.0 mph22.5 kmh 29.80 in1009.1 mb - 0.00 in0.0 mm 0.00 in0.0 mm
03:20 PM 76.1°F24.5°C 49.3°F9.6°C 39% 12.0 mph NNE19.3 kmh NNE 17.0 mph27.4 kmh 29.81 in1009.5 mb - 0.00 in0.0 mm 0.00 in0.0 mm
03:30 PM 75.7°F24.3°C 48.3°F9.1°C 38% 9.0 mph ENE14.5 kmh ENE 13.0 mph20.9 kmh 29.81 in1009.5 mb - 0.00 in0.0 mm 0.00 in0.0 mm
03:40 PM 75.0°F23.9°C 47.6°F8.7°C 38% 9.0 mph E14.5 kmh E 13.0 mph20.9 kmh 29.81 in1009.5 mb - 0.00 in0.0 mm 0.00 in0.0 mm
03:50 PM 75.3°F24.1°C 49.3°F9.6°C 40% 14.0 mph ENE22.5 kmh ENE 18.0 mph29.0 kmh 29.82 in1009.8 mb - 0.00 in0.0 mm 0.00 in0.0 mm
04:00 PM 74.4°F23.6°C 48.5°F9.2°C 40% 15.0 mph NE24.1 kmh NE 18.0 mph29.0 kmh 29.82 in1009.8 mb - 0.00 in0.0 mm 0.00 in0.0 mm
04:10 PM 73.9°F23.3°C 48.1°F8.9°C 40% 10.0 mph ENE16.1 kmh ENE 15.0 mph24.1 kmh 29.82 in1009.8 mb - 0.00 in0.0 mm 0.00 in0.0 mm
04:20 PM 73.0°F22.8°C 47.9°F8.8°C 41% 13.0 mph ENE20.9 kmh ENE 20.0 mph32.2 kmh 29.82 in1009.8 mb - 0.00 in0.0 mm 0.00 in0.0 mm
04:30 PM 71.2°F21.8°C 46.9°F8.3°C 42% 10.0 mph NE16.1 kmh NE 17.0 mph27.4 kmh 29.82 in1009.8 mb - 0.00 in0.0 mm 0.00 in0.0 mm
04:40 PM 71.5°F21.9°C 47.2°F8.4°C 42% 9.0 mph NE14.5 kmh NE 14.0 mph22.5 kmh 29.82 in1009.8 mb - 0.00 in0.0 mm 0.00 in0.0 mm
04:50 PM 72.3°F22.4°C 47.3°F8.5°C 41% 12.0 mph NE19.3 kmh NE 17.0 mph27.4 kmh 29.82 in1009.8 mb - 0.00 in0.0 mm 0.00 in0.0 mm
05:00 PM 72.1°F22.3°C 46.5°F8.1°C 40% 10.0 mph ENE16.1 kmh ENE 17.0 mph27.4 kmh 29.82 in1009.8 mb - 0.00 in0.0 mm 0.00 in0.0 mm
05:10 PM 71.4°F21.9°C 46.5°F8.1°C 41% 9.0 mph E14.5 kmh E 14.0 mph22.5 kmh 29.82 in1009.8 mb - 0.00 in0.0 mm 0.00 in0.0 mm
05:20 PM 71.3°F21.8°C 46.4°F8.0°C 41% 10.0 mph NE16.1 kmh NE 12.0 mph19.3 kmh 29.82 in1009.8 mb - 0.00 in0.0 mm 0.00 in0.0 mm
05:30 PM 71.0°F21.7°C 46.1°F7.8°C 41% 13.0 mph ENE20.9 kmh ENE 18.0 mph29.0 kmh 29.82 in1009.8 mb - 0.00 in0.0 mm 0.00 in0.0 mm
05:40 PM 69.8°F21.0°C 45.7°F7.6°C 42% 9.0 mph E14.5 kmh E 14.0 mph22.5 kmh 29.83 in1010.2 mb - 0.00 in0.0 mm 0.00 in0.0 mm
05:50 PM 69.6°F20.9°C 45.5°F7.5°C 42% 9.0 mph NE14.5 kmh NE 17.0 mph27.4 kmh 29.83 in1010.2 mb - 0.00 in0.0 mm 0.00 in0.0 mm
06:00 PM 69.6°F20.9°C 44.8°F7.1°C 41% 14.0 mph ENE22.5 kmh ENE 18.0 mph29.0 kmh 29.83 in1010.2 mb - 0.00 in0.0 mm 0.00 in0.0 mm
06:10 PM 69.2°F20.7°C 44.5°F6.9°C 41% 8.0 mph NE12.9 kmh NE 12.0 mph19.3 kmh 29.83 in1010.2 mb - 0.00 in0.0 mm 0.00 in0.0 mm
06:20 PM 69.2°F20.7°C 45.7°F7.6°C 43% 7.0 mph ENE11.3 kmh ENE 13.0 mph20.9 kmh 29.84 in1010.5 mb - 0.00 in0.0 mm 0.00 in0.0 mm
06:30 PM 68.5°F20.3°C 45.8°F7.7°C 44% 13.0 mph NE20.9 kmh NE 20.0 mph32.2 kmh 29.84 in1010.5 mb - 0.00 in0.0 mm 0.00 in0.0 mm
06:40 PM 68.0°F20.0°C 45.9°F7.7°C 45% 7.0 mph E11.3 kmh E 13.0 mph20.9 kmh 29.84 in1010.5 mb - 0.00 in0.0 mm 0.00 in0.0 mm
06:50 PM 67.5°F19.7°C 44.8°F7.1°C 44% 13.0 mph NE20.9 kmh NE 16.0 mph25.7 kmh 29.85 in1010.8 mb - 0.00 in0.0 mm 0.00 in0.0 mm
07:00 PM 66.9°F19.4°C 44.9°F7.2°C 45% 13.0 mph ENE20.9 kmh ENE 14.0 mph22.5 kmh 29.84 in1010.5 mb - 0.00 in0.0 mm 0.00 in0.0 mm
07:10 PM 66.2°F19.0°C 45.4°F7.4°C 47% 10.0 mph NE16.1 kmh NE 12.0 mph19.3 kmh 29.85 in1010.8 mb - 0.00 in0.0 mm 0.00 in0.0 mm
07:20 PM 65.5°F18.6°C 44.7°F7.1°C 47% 8.0 mph E12.9 kmh E 12.0 mph19.3 kmh 29.85 in1010.8 mb - 0.00 in0.0 mm 0.00 in0.0 mm
07:30 PM 58.4°F14.7°C 41.8°F5.4°C 54% 1.1 mph E1.8 kmh E 3.0 mph4.8 kmh 29.78 in1008.5 mb - 0.00 in0.0 mm 0.00 in0.0 mm
08:00 PM 57.0°F13.9°C 44.1°F6.7°C 62% 1.6 mph E2.6 kmh E 4.0 mph6.4 kmh 29.79 in1008.8 mb - 0.00 in0.0 mm 0.00 in0.0 mm
08:30 PM 57.0°F13.9°C 44.5°F6.9°C 63% 4.8 mph E7.7 kmh E 11.0 mph17.7 kmh 29.80 in1009.1 mb - 0.00 in0.0 mm 0.00 in0.0 mm
09:00 PM 55.5°F13.1°C 43.6°F6.4°C 64% Calm Calm -- 29.80 in1009.1 mb - 0.00 in0.0 mm 0.00 in0.0 mm
09:30 PM 54.4°F12.4°C 42.9°F6.1°C 65% 1.3 mph NE2.1 kmh NE 5.0 mph8.0 kmh 29.80 in1009.1 mb - 0.00 in0.0 mm 0.00 in0.0 mm
10:00 PM 54.4°F12.4°C 43.7°F6.5°C 67% 1.0 mph NE1.6 kmh NE 5.0 mph8.0 kmh 29.80 in1009.1 mb - 0.00 in0.0 mm 0.00 in0.0 mm
10:30 PM 53.5°F11.9°C 39.9°F4.4°C 60% 1.6 mph NE2.6 kmh NE 5.0 mph8.0 kmh 29.80 in1009.1 mb - 0.00 in0.0 mm 0.00 in0.0 mm
11:00 PM 53.5°F11.9°C 38.2°F3.4°C 56% 4.4 mph NNE7.1 kmh NNE 6.0 mph9.7 kmh 29.80 in1009.1 mb - 0.00 in0.0 mm 0.00 in0.0 mm
11:30 PM 52.5°F11.4°C 38.6°F3.7°C 59% 6.4 mph NE10.3 kmh NE 12.0 mph19.3 kmh 29.80 in1009.1 mb - 0.00 in0.0 mm 0.00 in0.0 mm